sensor_id;sensor_type;location;lat;lon;timestamp;P1;durP1;ratioP1;P2;durP2;ratioP2
51961;SDS011;37986;51.238;17.128;2022-07-15T00:01:46;3.85;;;1.55;;
51961;SDS011;37986;51.238;17.128;2022-07-15T00:04:12;2.85;;;1.52;;
51961;SDS011;37986;51.238;17.128;2022-07-15T00:06:37;3.62;;;1.67;;
51961;SDS011;37986;51.238;17.128;2022-07-15T00:09:03;2.77;;;1.37;;
51961;SDS011;37986;51.238;17.128;2022-07-15T00:11:29;4.20;;;1.45;;
51961;SDS011;37986;51.238;17.128;2022-07-15T00:13:55;3.52;;;1.62;;
51961;SDS011;37986;51.238;17.128;2022-07-15T00:16:20;7.33;;;1.75;;
51961;SDS011;37986;51.238;17.128;2022-07-15T00:18:46;5.45;;;2.33;;
51961;SDS011;37986;51.238;17.128;2022-07-15T00:21:12;5.75;;;2.35;;
51961;SDS011;37986;51.238;17.128;2022-07-15T00:23:38;4.83;;;1.98;;
51961;SDS011;37986;51.238;17.128;2022-07-15T00:26:04;7.17;;;2.42;;
51961;SDS011;37986;51.238;17.128;2022-07-15T00:28:29;4.33;;;1.32;;
51961;SDS011;37986;51.238;17.128;2022-07-15T00:30:56;1.70;;;1.20;;
51961;SDS011;37986;51.238;17.128;2022-07-15T00:33:22;5.95;;;1.57;;
51961;SDS011;37986;51.238;17.128;2022-07-15T00:35:47;3.22;;;1.30;;
51961;SDS011;37986;51.238;17.128;2022-07-15T00:38:13;4.28;;;1.55;;
51961;SDS011;37986;51.238;17.128;2022-07-15T00:40:40;4.17;;;1.00;;
51961;SDS011;37986;51.238;17.128;2022-07-15T00:43:09;4.00;;;1.60;;
51961;SDS011;37986;51.238;17.128;2022-07-15T00:45:36;2.42;;;1.40;;
51961;SDS011;37986;51.238;17.128;2022-07-15T00:48:02;3.52;;;1.40;;
51961;SDS011;37986;51.238;17.128;2022-07-15T00:50:29;3.50;;;1.87;;
51961;SDS011;37986;51.238;17.128;2022-07-15T00:52:58;7.30;;;2.17;;
51961;SDS011;37986;51.238;17.128;2022-07-15T00:55:40;3.02;;;1.40;;
51961;SDS011;37986;51.238;17.128;2022-07-15T00:58:10;5.65;;;1.70;;
51961;SDS011;37986;51.238;17.128;2022-07-15T01:00:38;6.00;;;1.80;;
51961;SDS011;37986;51.238;17.128;2022-07-15T01:03:06;4.12;;;1.98;;
51961;SDS011;37986;51.238;17.128;2022-07-15T01:08:32;5.20;;;2.50;;
51961;SDS011;37986;51.238;17.128;2022-07-15T01:10:57;6.77;;;2.97;;
51961;SDS011;37986;51.238;17.128;2022-07-15T01:13:23;7.63;;;3.27;;
51961;SDS011;37986;51.238;17.128;2022-07-15T01:15:49;6.97;;;3.20;;
51961;SDS011;37986;51.238;17.128;2022-07-15T01:18:15;6.65;;;3.12;;
51961;SDS011;37986;51.238;17.128;2022-07-15T01:20:41;8.83;;;2.42;;
51961;SDS011;37986;51.238;17.128;2022-07-15T01:23:11;4.87;;;2.50;;
51961;SDS011;37986;51.238;17.128;2022-07-15T01:25:38;3.25;;;1.87;;
51961;SDS011;37986;51.238;17.128;2022-07-15T01:28:06;5.28;;;2.17;;
51961;SDS011;37986;51.238;17.128;2022-07-15T01:30:33;5.42;;;2.60;;
51961;SDS011;37986;51.238;17.128;2022-07-15T01:33:01;7.53;;;2.60;;
51961;SDS011;37986;51.238;17.128;2022-07-15T01:35:27;5.30;;;2.17;;
51961;SDS011;37986;51.238;17.128;2022-07-15T01:37:54;5.10;;;2.40;;
51961;SDS011;37986;51.238;17.128;2022-07-15T01:40:20;4.75;;;2.50;;
51961;SDS011;37986;51.238;17.128;2022-07-15T01:42:46;7.58;;;2.95;;
51961;SDS011;37986;51.238;17.128;2022-07-15T01:45:12;7.58;;;4.22;;
51961;SDS011;37986;51.238;17.128;2022-07-15T01:47:42;9.75;;;5.85;;
51961;SDS011;37986;51.238;17.128;2022-07-15T01:50:11;7.72;;;4.92;;
51961;SDS011;37986;51.238;17.128;2022-07-15T01:52:37;9.48;;;5.45;;
51961;SDS011;37986;51.238;17.128;2022-07-15T01:55:04;9.38;;;5.22;;
51961;SDS011;37986;51.238;17.128;2022-07-15T01:57:31;9.40;;;4.87;;
51961;SDS011;37986;51.238;17.128;2022-07-15T01:59:57;8.33;;;4.07;;
51961;SDS011;37986;51.238;17.128;2022-07-15T02:02:23;3.57;;;2.63;;
51961;SDS011;37986;51.238;17.128;2022-07-15T02:04:49;6.83;;;2.47;;
51961;SDS011;37986;51.238;17.128;2022-07-15T02:07:15;6.15;;;2.20;;
51961;SDS011;37986;51.238;17.128;2022-07-15T02:09:41;6.47;;;2.12;;
51961;SDS011;37986;51.238;17.128;2022-07-15T02:12:07;3.27;;;1.87;;
51961;SDS011;37986;51.238;17.128;2022-07-15T02:14:34;3.33;;;1.60;;
51961;SDS011;37986;51.238;17.128;2022-07-15T02:17:03;2.30;;;1.10;;
51961;SDS011;37986;51.238;17.128;2022-07-15T02:19:29;6.03;;;1.15;;
51961;SDS011;37986;51.238;17.128;2022-07-15T02:21:55;5.55;;;1.40;;
51961;SDS011;37986;51.238;17.128;2022-07-15T02:24:21;5.83;;;1.05;;
51961;SDS011;37986;51.238;17.128;2022-07-15T02:26:47;3.30;;;1.10;;
51961;SDS011;37986;51.238;17.128;2022-07-15T02:29:14;3.42;;;1.07;;
51961;SDS011;37986;51.238;17.128;2022-07-15T02:31:41;2.85;;;1.00;;
51961;SDS011;37986;51.238;17.128;2022-07-15T02:34:07;3.17;;;1.32;;
51961;SDS011;37986;51.238;17.128;2022-07-15T02:36:34;5.65;;;0.90;;
51961;SDS011;37986;51.238;17.128;2022-07-15T02:39:00;1.77;;;0.90;;
51961;SDS011;37986;51.238;17.128;2022-07-15T02:41:28;2.35;;;0.80;;
51961;SDS011;37986;51.238;17.128;2022-07-15T02:43:55;1.87;;;1.00;;
51961;SDS011;37986;51.238;17.128;2022-07-15T02:46:21;2.15;;;0.62;;
51961;SDS011;37986;51.238;17.128;2022-07-15T02:48:46;2.60;;;0.85;;
51961;SDS011;37986;51.238;17.128;2022-07-15T02:51:13;2.47;;;0.88;;
51961;SDS011;37986;51.238;17.128;2022-07-15T02:53:39;2.70;;;1.00;;
51961;SDS011;37986;51.238;17.128;2022-07-15T02:56:06;5.58;;;1.55;;
51961;SDS011;37986;51.238;17.128;2022-07-15T02:58:32;1.05;;;0.85;;
51961;SDS011;37986;51.238;17.128;2022-07-15T03:00:59;4.03;;;0.70;;
51961;SDS011;37986;51.238;17.128;2022-07-15T03:03:26;3.30;;;0.72;;
51961;SDS011;37986;51.238;17.128;2022-07-15T03:05:57;2.98;;;0.70;;
51961;SDS011;37986;51.238;17.128;2022-07-15T03:08:24;3.67;;;1.07;;
51961;SDS011;37986;51.238;17.128;2022-07-15T03:10:50;4.67;;;0.82;;
51961;SDS011;37986;51.238;17.128;2022-07-15T03:13:16;3.30;;;0.75;;
51961;SDS011;37986;51.238;17.128;2022-07-15T03:15:42;2.55;;;0.82;;
51961;SDS011;37986;51.238;17.128;2022-07-15T03:18:08;1.52;;;0.68;;
51961;SDS011;37986;51.238;17.128;2022-07-15T03:20:34;2.52;;;0.93;;
51961;SDS011;37986;51.238;17.128;2022-07-15T03:23:00;1.87;;;0.80;;
51961;SDS011;37986;51.238;17.128;2022-07-15T03:25:26;2.90;;;0.98;;
51961;SDS011;37986;51.238;17.128;2022-07-15T03:27:52;3.40;;;0.93;;
51961;SDS011;37986;51.238;17.128;2022-07-15T03:30:18;2.95;;;0.80;;
51961;SDS011;37986;51.238;17.128;2022-07-15T03:32:45;1.65;;;0.70;;
51961;SDS011;37986;51.238;17.128;2022-07-15T03:35:11;2.87;;;0.80;;
51961;SDS011;37986;51.238;17.128;2022-07-15T03:37:37;2.70;;;0.68;;
51961;SDS011;37986;51.238;17.128;2022-07-15T03:40:03;3.50;;;0.80;;
51961;SDS011;37986;51.238;17.128;2022-07-15T03:42:31;4.25;;;1.20;;
51961;SDS011;37986;51.238;17.128;2022-07-15T03:44:57;1.65;;;0.68;;
51961;SDS011;37986;51.238;17.128;2022-07-15T03:47:22;2.90;;;0.98;;
51961;SDS011;37986;51.238;17.128;2022-07-15T03:49:48;4.67;;;0.72;;
51961;SDS011;37986;51.238;17.128;2022-07-15T03:52:14;3.08;;;0.72;;
51961;SDS011;37986;51.238;17.128;2022-07-15T03:54:40;1.77;;;0.62;;
51961;SDS011;37986;51.238;17.128;2022-07-15T03:57:06;3.10;;;0.70;;
51961;SDS011;37986;51.238;17.128;2022-07-15T03:59:32;1.98;;;0.75;;
51961;SDS011;37986;51.238;17.128;2022-07-15T04:01:58;2.85;;;0.70;;
51961;SDS011;37986;51.238;17.128;2022-07-15T04:04:24;1.85;;;0.70;;
51961;SDS011;37986;51.238;17.128;2022-07-15T04:06:50;4.12;;;0.62;;
51961;SDS011;37986;51.238;17.128;2022-07-15T04:09:15;2.60;;;0.80;;
51961;SDS011;37986;51.238;17.128;2022-07-15T04:11:41;3.85;;;0.80;;
51961;SDS011;37986;51.238;17.128;2022-07-15T04:14:11;4.72;;;0.90;;
51961;SDS011;37986;51.238;17.128;2022-07-15T04:16:38;4.00;;;0.90;;
51961;SDS011;37986;51.238;17.128;2022-07-15T04:19:04;2.92;;;0.70;;
51961;SDS011;37986;51.238;17.128;2022-07-15T04:21:30;4.75;;;0.57;;
51961;SDS011;37986;51.238;17.128;2022-07-15T04:23:56;4.03;;;0.60;;
51961;SDS011;37986;51.238;17.128;2022-07-15T04:26:23;1.67;;;0.70;;
51961;SDS011;37986;51.238;17.128;2022-07-15T04:28:49;2.98;;;0.70;;
51961;SDS011;37986;51.238;17.128;2022-07-15T04:31:15;2.58;;;0.90;;
51961;SDS011;37986;51.238;17.128;2022-07-15T04:33:40;3.67;;;0.70;;
51961;SDS011;37986;51.238;17.128;2022-07-15T04:36:06;3.42;;;0.55;;
51961;SDS011;37986;51.238;17.128;2022-07-15T04:38:32;3.05;;;0.70;;
51961;SDS011;37986;51.238;17.128;2022-07-15T04:40:58;3.08;;;0.70;;
51961;SDS011;37986;51.238;17.128;2022-07-15T04:43:24;3.20;;;0.70;;
51961;SDS011;37986;51.238;17.128;2022-07-15T04:45:50;6.03;;;0.70;;
51961;SDS011;37986;51.238;17.128;2022-07-15T04:48:16;2.30;;;0.70;;
51961;SDS011;37986;51.238;17.128;2022-07-15T04:51:00;3.30;;;0.62;;
51961;SDS011;37986;51.238;17.128;2022-07-15T04:53:26;2.08;;;0.75;;
51961;SDS011;37986;51.238;17.128;2022-07-15T04:55:52;1.70;;;0.40;;
51961;SDS011;37986;51.238;17.128;2022-07-15T04:58:18;3.20;;;0.40;;
51961;SDS011;37986;51.238;17.128;2022-07-15T05:00:44;1.32;;;0.35;;
51961;SDS011;37986;51.238;17.128;2022-07-15T05:03:11;3.05;;;0.33;;
51961;SDS011;37986;51.238;17.128;2022-07-15T05:05:38;1.10;;;0.40;;
51961;SDS011;37986;51.238;17.128;2022-07-15T05:08:04;1.95;;;0.37;;
51961;SDS011;37986;51.238;17.128;2022-07-15T05:10:30;2.90;;;0.50;;
51961;SDS011;37986;51.238;17.128;2022-07-15T05:12:56;0.85;;;0.40;;
51961;SDS011;37986;51.238;17.128;2022-07-15T05:15:22;1.70;;;0.30;;
51961;SDS011;37986;51.238;17.128;2022-07-15T05:17:49;0.20;;;0.20;;
51961;SDS011;37986;51.238;17.128;2022-07-15T05:20:15;2.70;;;0.40;;
51961;SDS011;37986;51.238;17.128;2022-07-15T05:22:42;4.37;;;0.55;;
51961;SDS011;37986;51.238;17.128;2022-07-15T05:25:07;0.47;;;0.30;;
51961;SDS011;37986;51.238;17.128;2022-07-15T05:27:34;2.70;;;0.37;;
51961;SDS011;37986;51.238;17.128;2022-07-15T05:30:00;1.32;;;0.40;;
51961;SDS011;37986;51.238;17.128;2022-07-15T05:32:26;2.85;;;0.37;;
51961;SDS011;37986;51.238;17.128;2022-07-15T05:34:51;1.92;;;0.40;;
51961;SDS011;37986;51.238;17.128;2022-07-15T05:37:17;1.95;;;0.47;;
51961;SDS011;37986;51.238;17.128;2022-07-15T05:39:43;3.45;;;0.60;;
51961;SDS011;37986;51.238;17.128;2022-07-15T05:42:22;2.75;;;0.50;;
51961;SDS011;37986;51.238;17.128;2022-07-15T05:44:49;1.50;;;0.40;;
51961;SDS011;37986;51.238;17.128;2022-07-15T05:47:15;3.20;;;0.40;;
51961;SDS011;37986;51.238;17.128;2022-07-15T05:49:41;2.42;;;0.40;;
51961;SDS011;37986;51.238;17.128;2022-07-15T05:52:07;3.98;;;0.40;;
51961;SDS011;37986;51.238;17.128;2022-07-15T05:54:33;1.57;;;0.60;;
51961;SDS011;37986;51.238;17.128;2022-07-15T05:56:59;1.85;;;0.60;;
51961;SDS011;37986;51.238;17.128;2022-07-15T05:59:25;1.92;;;0.90;;
51961;SDS011;37986;51.238;17.128;2022-07-15T06:01:51;1.40;;;0.42;;
51961;SDS011;37986;51.238;17.128;2022-07-15T06:04:17;2.22;;;0.70;;
51961;SDS011;37986;51.238;17.128;2022-07-15T06:06:43;2.80;;;0.70;;
51961;SDS011;37986;51.238;17.128;2022-07-15T06:09:09;3.60;;;1.10;;
51961;SDS011;37986;51.238;17.128;2022-07-15T06:11:34;3.20;;;0.90;;
51961;SDS011;37986;51.238;17.128;2022-07-15T06:14:00;1.92;;;0.70;;
51961;SDS011;37986;51.238;17.128;2022-07-15T06:16:27;4.78;;;0.70;;
51961;SDS011;37986;51.238;17.128;2022-07-15T06:18:53;2.92;;;0.60;;
51961;SDS011;37986;51.238;17.128;2022-07-15T06:21:19;1.57;;;0.68;;
51961;SDS011;37986;51.238;17.128;2022-07-15T06:23:44;2.00;;;0.50;;
51961;SDS011;37986;51.238;17.128;2022-07-15T06:26:10;3.65;;;0.70;;
51961;SDS011;37986;51.238;17.128;2022-07-15T06:28:36;2.95;;;0.30;;
51961;SDS011;37986;51.238;17.128;2022-07-15T06:31:02;1.95;;;0.50;;
51961;SDS011;37986;51.238;17.128;2022-07-15T06:33:28;4.28;;;0.68;;
51961;SDS011;37986;51.238;17.128;2022-07-15T06:35:54;4.62;;;0.60;;
51961;SDS011;37986;51.238;17.128;2022-07-15T06:38:20;2.17;;;0.95;;
51961;SDS011;37986;51.238;17.128;2022-07-15T06:40:46;4.53;;;0.90;;
51961;SDS011;37986;51.238;17.128;2022-07-15T06:43:13;2.55;;;0.40;;
51961;SDS011;37986;51.238;17.128;2022-07-15T06:45:39;2.33;;;0.50;;
51961;SDS011;37986;51.238;17.128;2022-07-15T06:48:05;2.08;;;0.47;;
51961;SDS011;37986;51.238;17.128;2022-07-15T06:50:31;5.72;;;0.70;;
51961;SDS011;37986;51.238;17.128;2022-07-15T06:52:57;5.03;;;0.55;;
51961;SDS011;37986;51.238;17.128;2022-07-15T06:55:23;3.50;;;0.50;;
51961;SDS011;37986;51.238;17.128;2022-07-15T06:57:49;1.40;;;0.65;;
51961;SDS011;37986;51.238;17.128;2022-07-15T07:00:15;3.22;;;0.75;;
51961;SDS011;37986;51.238;17.128;2022-07-15T07:02:41;1.75;;;0.50;;
51961;SDS011;37986;51.238;17.128;2022-07-15T07:05:07;1.27;;;0.50;;
51961;SDS011;37986;51.238;17.128;2022-07-15T07:07:34;3.58;;;1.10;;
51961;SDS011;37986;51.238;17.128;2022-07-15T07:10:00;1.40;;;0.50;;
51961;SDS011;37986;51.238;17.128;2022-07-15T07:12:27;2.60;;;0.80;;
51961;SDS011;37986;51.238;17.128;2022-07-15T07:14:52;2.92;;;0.70;;
51961;SDS011;37986;51.238;17.128;2022-07-15T07:17:19;2.37;;;0.60;;
51961;SDS011;37986;51.238;17.128;2022-07-15T07:19:45;3.00;;;0.60;;
51961;SDS011;37986;51.238;17.128;2022-07-15T07:22:11;4.03;;;0.98;;
51961;SDS011;37986;51.238;17.128;2022-07-15T07:24:37;1.55;;;0.55;;
51961;SDS011;37986;51.238;17.128;2022-07-15T07:27:03;2.90;;;0.68;;
51961;SDS011;37986;51.238;17.128;2022-07-15T07:29:30;2.72;;;0.50;;
51961;SDS011;37986;51.238;17.128;2022-07-15T07:31:57;3.72;;;1.00;;
51961;SDS011;37986;51.238;17.128;2022-07-15T07:34:22;4.10;;;0.60;;
51961;SDS011;37986;51.238;17.128;2022-07-15T07:36:48;2.92;;;0.70;;
51961;SDS011;37986;51.238;17.128;2022-07-15T07:39:14;4.08;;;0.80;;
51961;SDS011;37986;51.238;17.128;2022-07-15T07:41:40;5.65;;;1.05;;
51961;SDS011;37986;51.238;17.128;2022-07-15T07:44:06;3.25;;;0.70;;
51961;SDS011;37986;51.238;17.128;2022-07-15T07:46:33;4.97;;;0.60;;
51961;SDS011;37986;51.238;17.128;2022-07-15T07:48:59;3.52;;;0.60;;
51961;SDS011;37986;51.238;17.128;2022-07-15T07:51:25;3.47;;;0.75;;
51961;SDS011;37986;51.238;17.128;2022-07-15T07:53:51;3.15;;;0.60;;
51961;SDS011;37986;51.238;17.128;2022-07-15T07:56:17;1.85;;;0.60;;
51961;SDS011;37986;51.238;17.128;2022-07-15T07:58:43;6.22;;;0.70;;
51961;SDS011;37986;51.238;17.128;2022-07-15T08:01:09;3.40;;;0.80;;
51961;SDS011;37986;51.238;17.128;2022-07-15T08:03:35;2.98;;;0.62;;
51961;SDS011;37986;51.238;17.128;2022-07-15T08:06:00;2.85;;;0.78;;
51961;SDS011;37986;51.238;17.128;2022-07-15T08:08:26;1.87;;;0.72;;
51961;SDS011;37986;51.238;17.128;2022-07-15T08:10:53;3.80;;;0.50;;
51961;SDS011;37986;51.238;17.128;2022-07-15T08:13:21;9.53;;;0.53;;
51961;SDS011;37986;51.238;17.128;2022-07-15T08:15:49;2.20;;;0.40;;
51961;SDS011;37986;51.238;17.128;2022-07-15T08:18:18;3.92;;;0.70;;
51961;SDS011;37986;51.238;17.128;2022-07-15T08:20:44;2.35;;;0.70;;
51961;SDS011;37986;51.238;17.128;2022-07-15T08:23:10;2.75;;;0.70;;
51961;SDS011;37986;51.238;17.128;2022-07-15T08:25:36;4.25;;;0.50;;
51961;SDS011;37986;51.238;17.128;2022-07-15T08:28:04;1.62;;;0.60;;
51961;SDS011;37986;51.238;17.128;2022-07-15T08:30:32;5.40;;;0.98;;
51961;SDS011;37986;51.238;17.128;2022-07-15T08:32:59;3.17;;;0.70;;
51961;SDS011;37986;51.238;17.128;2022-07-15T08:35:26;5.97;;;0.70;;
51961;SDS011;37986;51.238;17.128;2022-07-15T08:37:52;4.50;;;0.70;;
51961;SDS011;37986;51.238;17.128;2022-07-15T08:40:19;3.92;;;0.60;;
51961;SDS011;37986;51.238;17.128;2022-07-15T08:42:45;2.65;;;0.53;;
51961;SDS011;37986;51.238;17.128;2022-07-15T08:45:12;3.08;;;0.60;;
51961;SDS011;37986;51.238;17.128;2022-07-15T08:47:41;2.12;;;0.50;;
51961;SDS011;37986;51.238;17.128;2022-07-15T08:50:12;4.13;;;0.63;;
51961;SDS011;37986;51.238;17.128;2022-07-15T08:52:42;2.30;;;0.60;;
51961;SDS011;37986;51.238;17.128;2022-07-15T08:55:12;4.03;;;0.60;;
51961;SDS011;37986;51.238;17.128;2022-07-15T08:57:44;1.82;;;0.50;;
51961;SDS011;37986;51.238;17.128;2022-07-15T09:00:16;2.47;;;0.50;;
51961;SDS011;37986;51.238;17.128;2022-07-15T09:02:42;2.22;;;0.40;;
51961;SDS011;37986;51.238;17.128;2022-07-15T09:08:06;1.60;;;0.50;;
51961;SDS011;37986;51.238;17.128;2022-07-15T09:10:41;3.70;;;0.60;;
51961;SDS011;37986;51.238;17.128;2022-07-15T09:13:32;4.42;;;0.50;;
51961;SDS011;37986;51.238;17.128;2022-07-15T09:16:04;2.55;;;0.68;;
51961;SDS011;37986;51.238;17.128;2022-07-15T09:18:37;1.92;;;0.60;;
51961;SDS011;37986;51.238;17.128;2022-07-15T09:21:14;4.65;;;0.53;;
51961;SDS011;37986;51.238;17.128;2022-07-15T09:23:46;1.82;;;0.55;;
51961;SDS011;37986;51.238;17.128;2022-07-15T09:26:34;3.37;;;0.72;;
51961;SDS011;37986;51.238;17.128;2022-07-15T09:29:02;2.77;;;0.50;;
51961;SDS011;37986;51.238;17.128;2022-07-15T09:31:38;2.20;;;0.50;;
51961;SDS011;37986;51.238;17.128;2022-07-15T09:34:22;1.87;;;0.80;;
51961;SDS011;37986;51.238;17.128;2022-07-15T09:36:50;1.07;;;0.50;;
51961;SDS011;37986;51.238;17.128;2022-07-15T09:39:23;3.25;;;0.40;;
51961;SDS011;37986;51.238;17.128;2022-07-15T09:41:50;1.92;;;0.60;;
51961;SDS011;37986;51.238;17.128;2022-07-15T09:44:18;2.80;;;0.40;;
51961;SDS011;37986;51.238;17.128;2022-07-15T09:46:48;1.37;;;0.40;;
51961;SDS011;37986;51.238;17.128;2022-07-15T09:52:03;0.30;;;0.25;;
51961;SDS011;37986;51.238;17.128;2022-07-15T09:54:36;5.00;;;0.70;;
51961;SDS011;37986;51.238;17.128;2022-07-15T09:57:08;3.05;;;0.75;;
51961;SDS011;37986;51.238;17.128;2022-07-15T09:59:37;3.05;;;0.50;;
51961;SDS011;37986;51.238;17.128;2022-07-15T10:02:03;2.22;;;0.45;;
51961;SDS011;37986;51.238;17.128;2022-07-15T10:04:29;5.60;;;1.12;;
51961;SDS011;37986;51.238;17.128;2022-07-15T10:06:57;5.05;;;0.60;;
51961;SDS011;37986;51.238;17.128;2022-07-15T10:09:28;1.45;;;0.50;;
51961;SDS011;37986;51.238;17.128;2022-07-15T10:12:17;2.10;;;0.37;;
51961;SDS011;37986;51.238;17.128;2022-07-15T10:27:19;2.55;;;0.60;;
51961;SDS011;37986;51.238;17.128;2022-07-15T10:30:03;5.50;;;0.60;;
51961;SDS011;37986;51.238;17.128;2022-07-15T10:35:44;2.22;;;0.55;;
51961;SDS011;37986;51.238;17.128;2022-07-15T10:43:38;1.95;;;0.75;;
51961;SDS011;37986;51.238;17.128;2022-07-15T10:48:50;2.95;;;0.60;;
51961;SDS011;37986;51.238;17.128;2022-07-15T10:54:07;5.22;;;0.90;;
51961;SDS011;37986;51.238;17.128;2022-07-15T10:56:48;2.45;;;0.75;;
51961;SDS011;37986;51.238;17.128;2022-07-15T10:59:15;3.37;;;0.60;;
51961;SDS011;37986;51.238;17.128;2022-07-15T11:01:48;3.98;;;0.98;;
51961;SDS011;37986;51.238;17.128;2022-07-15T11:04:27;3.05;;;0.78;;
51961;SDS011;37986;51.238;17.128;2022-07-15T11:09:49;2.67;;;0.70;;
51961;SDS011;37986;51.238;17.128;2022-07-15T11:15:05;7.20;;;0.93;;
51961;SDS011;37986;51.238;17.128;2022-07-15T11:17:38;2.70;;;0.72;;
51961;SDS011;37986;51.238;17.128;2022-07-15T11:20:10;5.97;;;0.82;;
51961;SDS011;37986;51.238;17.128;2022-07-15T11:22:44;2.37;;;0.72;;
51961;SDS011;37986;51.238;17.128;2022-07-15T11:25:21;2.13;;;1.10;;
51961;SDS011;37986;51.238;17.128;2022-07-15T11:28:06;4.97;;;0.90;;
51961;SDS011;37986;51.238;17.128;2022-07-15T11:30:42;4.33;;;1.25;;
51961;SDS011;37986;51.238;17.128;2022-07-15T11:33:16;5.10;;;1.02;;
51961;SDS011;37986;51.238;17.128;2022-07-15T11:35:44;2.83;;;0.62;;
51961;SDS011;37986;51.238;17.128;2022-07-15T11:38:29;3.87;;;0.62;;
51961;SDS011;37986;51.238;17.128;2022-07-15T11:40:59;4.28;;;0.80;;
51961;SDS011;37986;51.238;17.128;2022-07-15T11:43:56;3.00;;;0.50;;
51961;SDS011;37986;51.238;17.128;2022-07-15T11:46:44;4.47;;;0.60;;
51961;SDS011;37986;51.238;17.128;2022-07-15T11:49:18;1.85;;;0.53;;
51961;SDS011;37986;51.238;17.128;2022-07-15T11:52:01;1.80;;;0.60;;
51961;SDS011;37986;51.238;17.128;2022-07-15T11:54:30;3.45;;;0.70;;
51961;SDS011;37986;51.238;17.128;2022-07-15T11:56:59;2.22;;;0.45;;
51961;SDS011;37986;51.238;17.128;2022-07-15T11:59:27;2.17;;;0.60;;
51961;SDS011;37986;51.238;17.128;2022-07-15T12:02:03;2.95;;;0.70;;
51961;SDS011;37986;51.238;17.128;2022-07-15T12:04:37;1.52;;;0.50;;
51961;SDS011;37986;51.238;17.128;2022-07-15T12:07:05;2.30;;;0.53;;
51961;SDS011;37986;51.238;17.128;2022-07-15T12:09:46;2.47;;;0.60;;
51961;SDS011;37986;51.238;17.128;2022-07-15T12:12:11;1.50;;;0.50;;
51961;SDS011;37986;51.238;17.128;2022-07-15T12:14:38;1.37;;;0.47;;
51961;SDS011;37986;51.238;17.128;2022-07-15T12:17:05;3.98;;;0.70;;
51961;SDS011;37986;51.238;17.128;2022-07-15T12:19:32;2.47;;;0.60;;
51961;SDS011;37986;51.238;17.128;2022-07-15T12:22:00;4.92;;;0.75;;
51961;SDS011;37986;51.238;17.128;2022-07-15T12:27:14;9.53;;;1.00;;
51961;SDS011;37986;51.238;17.128;2022-07-15T12:29:40;4.00;;;0.70;;
51961;SDS011;37986;51.238;17.128;2022-07-15T12:32:08;2.25;;;0.72;;
51961;SDS011;37986;51.238;17.128;2022-07-15T12:37:18;2.27;;;0.75;;
51961;SDS011;37986;51.238;17.128;2022-07-15T12:42:46;3.05;;;0.85;;
51961;SDS011;37986;51.238;17.128;2022-07-15T12:45:18;3.00;;;0.80;;
51961;SDS011;37986;51.238;17.128;2022-07-15T12:50:32;1.92;;;0.62;;
51961;SDS011;37986;51.238;17.128;2022-07-15T12:53:15;4.45;;;0.90;;
51961;SDS011;37986;51.238;17.128;2022-07-15T12:55:45;3.80;;;0.65;;
51961;SDS011;37986;51.238;17.128;2022-07-15T12:58:27;1.72;;;1.00;;
51961;SDS011;37986;51.238;17.128;2022-07-15T13:01:06;5.22;;;1.00;;
51961;SDS011;37986;51.238;17.128;2022-07-15T13:03:35;4.42;;;0.88;;
51961;SDS011;37986;51.238;17.128;2022-07-15T13:06:03;2.05;;;0.68;;
51961;SDS011;37986;51.238;17.128;2022-07-15T13:08:36;4.58;;;0.90;;
51961;SDS011;37986;51.238;17.128;2022-07-15T13:11:06;3.08;;;0.82;;
51961;SDS011;37986;51.238;17.128;2022-07-15T13:13:35;2.00;;;0.70;;
51961;SDS011;37986;51.238;17.128;2022-07-15T13:16:04;3.80;;;1.00;;
51961;SDS011;37986;51.238;17.128;2022-07-15T13:18:31;4.92;;;0.80;;
51961;SDS011;37986;51.238;17.128;2022-07-15T13:20:58;4.65;;;0.80;;
51961;SDS011;37986;51.238;17.128;2022-07-15T13:23:29;4.78;;;0.82;;
51961;SDS011;37986;51.238;17.128;2022-07-15T13:25:55;1.75;;;0.50;;
51961;SDS011;37986;51.238;17.128;2022-07-15T13:28:21;1.82;;;0.70;;
51961;SDS011;37986;51.238;17.128;2022-07-15T13:30:48;2.47;;;0.65;;
51961;SDS011;37986;51.238;17.128;2022-07-15T13:33:17;4.83;;;0.72;;
51961;SDS011;37986;51.238;17.128;2022-07-15T13:35:43;1.77;;;0.60;;
51961;SDS011;37986;51.238;17.128;2022-07-15T13:38:09;2.08;;;0.60;;
51961;SDS011;37986;51.238;17.128;2022-07-15T13:40:35;3.60;;;0.70;;
51961;SDS011;37986;51.238;17.128;2022-07-15T13:43:01;4.97;;;0.82;;
51961;SDS011;37986;51.238;17.128;2022-07-15T13:45:27;2.50;;;0.50;;
51961;SDS011;37986;51.238;17.128;2022-07-15T13:47:53;2.08;;;0.72;;
51961;SDS011;37986;51.238;17.128;2022-07-15T13:50:19;1.50;;;0.45;;
51961;SDS011;37986;51.238;17.128;2022-07-15T13:53:03;3.12;;;0.80;;
51961;SDS011;37986;51.238;17.128;2022-07-15T13:55:29;2.77;;;0.82;;
51961;SDS011;37986;51.238;17.128;2022-07-15T13:57:56;1.80;;;0.53;;
51961;SDS011;37986;51.238;17.128;2022-07-15T14:00:22;2.90;;;0.90;;
51961;SDS011;37986;51.238;17.128;2022-07-15T14:02:50;1.25;;;0.50;;
51961;SDS011;37986;51.238;17.128;2022-07-15T14:05:18;2.83;;;0.53;;
51961;SDS011;37986;51.238;17.128;2022-07-15T14:07:45;2.50;;;0.60;;
51961;SDS011;37986;51.238;17.128;2022-07-15T14:10:11;4.92;;;0.85;;
51961;SDS011;37986;51.238;17.128;2022-07-15T14:12:38;3.27;;;0.80;;
51961;SDS011;37986;51.238;17.128;2022-07-15T14:15:05;2.27;;;0.80;;
51961;SDS011;37986;51.238;17.128;2022-07-15T14:17:32;3.70;;;0.80;;
51961;SDS011;37986;51.238;17.128;2022-07-15T14:19:58;4.10;;;0.93;;
51961;SDS011;37986;51.238;17.128;2022-07-15T14:22:25;1.80;;;0.90;;
51961;SDS011;37986;51.238;17.128;2022-07-15T14:24:52;1.80;;;0.50;;
51961;SDS011;37986;51.238;17.128;2022-07-15T14:27:18;2.12;;;0.70;;
51961;SDS011;37986;51.238;17.128;2022-07-15T14:29:44;2.58;;;0.80;;
51961;SDS011;37986;51.238;17.128;2022-07-15T14:32:11;2.20;;;0.70;;
51961;SDS011;37986;51.238;17.128;2022-07-15T14:34:36;1.55;;;0.50;;
51961;SDS011;37986;51.238;17.128;2022-07-15T14:37:02;2.05;;;0.70;;
51961;SDS011;37986;51.238;17.128;2022-07-15T14:39:28;2.47;;;0.90;;
51961;SDS011;37986;51.238;17.128;2022-07-15T14:41:54;2.12;;;0.55;;
51961;SDS011;37986;51.238;17.128;2022-07-15T14:44:20;1.95;;;0.70;;
51961;SDS011;37986;51.238;17.128;2022-07-15T14:46:46;2.42;;;0.72;;
51961;SDS011;37986;51.238;17.128;2022-07-15T14:49:12;5.00;;;0.80;;
51961;SDS011;37986;51.238;17.128;2022-07-15T14:51:38;4.12;;;0.62;;
51961;SDS011;37986;51.238;17.128;2022-07-15T14:54:03;3.40;;;0.98;;
51961;SDS011;37986;51.238;17.128;2022-07-15T14:56:29;6.72;;;1.40;;
51961;SDS011;37986;51.238;17.128;2022-07-15T14:58:55;2.62;;;0.60;;
51961;SDS011;37986;51.238;17.128;2022-07-15T15:01:21;4.37;;;0.88;;
51961;SDS011;37986;51.238;17.128;2022-07-15T15:03:47;2.08;;;0.70;;
51961;SDS011;37986;51.238;17.128;2022-07-15T15:06:14;3.50;;;0.65;;
51961;SDS011;37986;51.238;17.128;2022-07-15T15:08:39;3.12;;;0.70;;
51961;SDS011;37986;51.238;17.128;2022-07-15T15:11:06;4.92;;;0.60;;
51961;SDS011;37986;51.238;17.128;2022-07-15T15:13:32;4.40;;;0.70;;
51961;SDS011;37986;51.238;17.128;2022-07-15T15:15:58;5.90;;;0.82;;
51961;SDS011;37986;51.238;17.128;2022-07-15T15:18:24;5.80;;;0.82;;
51961;SDS011;37986;51.238;17.128;2022-07-15T15:20:50;3.65;;;0.70;;
51961;SDS011;37986;51.238;17.128;2022-07-15T15:23:16;3.90;;;0.70;;
51961;SDS011;37986;51.238;17.128;2022-07-15T15:25:42;4.62;;;0.70;;
51961;SDS011;37986;51.238;17.128;2022-07-15T15:28:26;3.02;;;0.60;;
51961;SDS011;37986;51.238;17.128;2022-07-15T15:30:53;2.27;;;0.82;;